Estación Meteorológica Peña el Pijo (Robertgarden) [ 08/20/17 13:39:21 CEST ]

Fecha Hora Presion(HPa) Temp (°C) Humedad % Rocio (°C) Viento ( m/s) Direccion Lluvia 1Hora(mm) Lluvia 24H(mm) LLuvia Total(mm)
2017-Jun-06 01:01:36 1009.700 11.2 71 6.2         1427.09
2017-Jun-06 02:01:40 1009.200 10.1 76 6.0         1427.09
2017-Jun-06 03:01:38 1008.900 9.2 78 5.5         1427.09
2017-Jun-06 04:01:33 1008.400 8.8 81 5.7         1427.09
2017-Jun-06 05:01:37 1008.200 8.3 82 5.4         1427.09
2017-Jun-06 06:01:38 1008.300 7.8 83 5.1         1427.09
2017-Jun-06 07:02:00 1008.100 7.4 84 4.9         1427.09
2017-Jun-06 08:01:59 1008.300 9.8 86 7.5         1427.09
2017-Jun-06 09:01:58 1008.400 17.8 75 13.3         1427.09
2017-Jun-06 10:02:05 1008.400 22.9 44 9.9         1427.09
2017-Jun-06 11:01:47 1008.700 25.4 33 7.9         1427.09
2017-Jun-06 12:01:46 1008.900 27.3 31 8.7         1427.09
2017-Jun-06 13:02:03 1008.700 29.0 29 9.1         1427.09
2017-Jun-06 14:02:01 1008.700 29.3 29 9.4         1427.09
2017-Jun-06 15:01:58 1008.400 31.2 26 9.2         1427.09
2017-Jun-06 16:01:52 1008.300 32.2 24 8.9         1427.09
2017-Jun-06 17:01:51 1008.000 31.5 22 7.1         1427.09
2017-Jun-06 18:01:47 1008.100 32.0 22 7.5         1427.09
2017-Jun-06 19:01:45 1008.100 30.8 22 6.5         1427.09
2017-Jun-06 20:01:50 1008.500 28.4 24 5.6         1427.09
2017-Jun-06 21:01:45 1008.800 22.2 33 5.1         1427.09
2017-Jun-06 22:01:58 1009.600 17.7 50 7.1         1427.09
2017-Jun-06 23:01:39 1010.400 15.4 57 6.9         1427.09

Temperatura Máxima:32°    Temperatura Mínima:
Presión Máxima:1010.400 Hpa    Presión Mínima:1008.000 Hpa


Volver